Time;durP1;ratioP1;P1;durP2;ratioP2;P2;SDS_P1;SDS_P2;PMS_P1;PMS_P2;Temp;Humidity;BMP_temperature;BMP_pressure;BME280_temperature;BME280_humidity;BME280_pressure;Samples;Min_cycle;Max_cycle;Signal;HPM_P1;HPM_P2
2022/07/19 00:05:58;;;;;;;2.60;1.20;;;21.20;99.90;;;;;;20654753;28;20125;-82
2022/07/19 00:15:59;;;;;;;2.92;0.85;;;21.10;99.90;;;;;;20651780;28;20038;-83
2022/07/19 00:26:02;;;;;;;2.13;0.82;;;21.00;99.90;;;;;;20661604;28;20042;-82
2022/07/19 00:36:03;;;;;;;1.42;0.90;;;20.80;99.90;;;;;;20646075;28;20101;-83
2022/07/19 00:46:10;;;;;;;1.23;0.75;;;20.60;99.90;;;;;;20643685;28;20046;-83
2022/07/19 00:56:12;;;;;;;;;;;20.50;99.90;;;;;;20636170;28;20050;-83
2022/07/19 01:06:14;;;;;;;1.63;1.00;;;20.40;99.90;;;;;;20675611;28;19921;-83
2022/07/19 01:16:15;;;;;;;3.08;0.80;;;20.30;99.90;;;;;;20659427;28;20037;-83
2022/07/19 01:26:17;;;;;;;2.47;0.75;;;20.20;99.90;;;;;;20651342;28;20033;-83
2022/07/19 01:36:18;;;;;;;1.88;1.25;;;20.10;99.90;;;;;;20640632;28;20805;-83
2022/07/19 01:46:19;;;;;;;2.50;1.35;;;20.00;99.90;;;;;;20657060;28;20127;-83
2022/07/19 01:56:20;;;;;;;1.83;1.10;;;19.90;99.90;;;;;;20636824;28;20042;-83
2022/07/19 02:06:22;;;;;;;2.08;1.15;;;19.80;99.90;;;;;;20647667;28;20034;-82
2022/07/19 02:16:22;;;;;;;2.03;1.10;;;19.80;99.90;;;;;;20632720;28;20094;-83
2022/07/19 02:26:24;;;;;;;2.42;1.27;;;19.70;99.90;;;;;;20645607;28;20030;-83
2022/07/19 02:36:25;;;;;;;2.58;1.20;;;19.60;99.90;;;;;;20641427;28;20045;-83
2022/07/19 02:46:26;;;;;;;1.85;0.82;;;19.50;99.90;;;;;;20637327;28;20050;-83
2022/07/19 02:56:27;;;;;;;2.20;0.90;;;19.50;99.90;;;;;;20654590;28;20062;-83
2022/07/19 03:06:28;;;;;;;4.70;0.80;;;19.50;99.90;;;;;;20660897;28;20042;-83
2022/07/19 03:16:29;;;;;;;1.13;0.73;;;19.40;99.90;;;;;;20641342;28;20045;-83
2022/07/19 03:26:30;;;;;;;2.00;1.02;;;19.30;99.90;;;;;;20654184;28;20453;-83
2022/07/19 03:36:32;;;;;;;2.33;1.23;;;19.30;99.90;;;;;;20646790;28;20085;-83
2022/07/19 03:46:33;;;;;;;2.17;0.80;;;19.10;99.90;;;;;;20637275;28;20872;-83
2022/07/19 03:56:34;;;;;;;3.58;1.20;;;19.00;99.90;;;;;;20640511;28;20458;-83
2022/07/19 04:06:35;;;;;;;1.42;0.75;;;19.00;99.90;;;;;;20652037;28;20041;-83
2022/07/19 04:16:36;;;;;;;2.13;1.25;;;19.00;99.90;;;;;;20681148;28;20060;-83
2022/07/19 04:26:37;;;;;;;1.48;0.95;;;18.90;99.90;;;;;;20648581;28;20551;-83
2022/07/19 04:36:38;;;;;;;1.60;0.77;;;19.00;99.90;;;;;;20595756;28;1068432;-83
2022/07/19 04:46:39;;;;;;;2.47;1.15;;;19.10;99.90;;;;;;20637963;28;20506;-83
2022/07/19 04:56:40;;;;;;;1.17;0.60;;;19.10;99.90;;;;;;20655301;28;20472;-83
2022/07/19 05:06:42;;;;;;;1.52;0.90;;;19.30;99.90;;;;;;20638512;28;20065;-83
2022/07/19 05:16:44;;;;;;;1.95;1.08;;;19.70;99.90;;;;;;20643080;28;20051;-83
2022/07/19 05:26:45;;;;;;;1.35;0.95;;;20.00;99.90;;;;;;20662096;28;20034;-83
2022/07/19 05:36:46;;;;;;;2.90;1.30;;;20.40;99.90;;;;;;20634849;28;20523;-82
2022/07/19 05:46:47;;;;;;;1.52;0.88;;;21.00;99.90;;;;;;20652878;28;20101;-82
2022/07/19 05:56:48;;;;;;;0.90;0.50;;;21.50;99.90;;;;;;20663704;28;20042;-82
2022/07/19 06:06:49;;;;;;;5.00;1.20;;;22.20;99.90;;;;;;20677073;28;20044;-82
2022/07/19 06:16:50;;;;;;;1.33;0.75;;;22.70;99.90;;;;;;20660788;28;20057;-82
2022/07/19 06:26:51;;;;;;;2.67;1.20;;;23.30;99.90;;;;;;20658179;28;20041;-80
2022/07/19 06:36:52;;;;;;;1.70;0.85;;;24.20;99.90;;;;;;20656483;28;20041;-80
2022/07/19 06:46:53;;;;;;;1.48;0.82;;;25.20;99.90;;;;;;20670469;28;20038;-81
2022/07/19 06:56:54;;;;;;;2.05;0.90;;;25.40;99.90;;;;;;20654346;28;20411;-81
2022/07/19 07:06:55;;;;;;;1.60;0.95;;;25.80;99.90;;;;;;20663717;28;20046;-80
2022/07/19 07:16:56;;;;;;;1.70;0.98;;;26.40;97.30;;;;;;20668736;28;20070;-81
2022/07/19 07:26:58;;;;;;;1.55;0.70;;;26.70;97.70;;;;;;20674443;28;20042;-81
2022/07/19 07:36:59;;;;;;;3.10;0.93;;;27.00;98.80;;;;;;20661942;28;20052;-81
2022/07/19 07:47:00;;;;;;;1.73;1.05;;;27.30;97.80;;;;;;20672891;28;20448;-80
2022/07/19 07:57:01;;;;;;;2.28;0.90;;;27.60;97.30;;;;;;20677805;28;20382;-81
2022/07/19 08:07:02;;;;;;;3.33;0.80;;;28.00;96.80;;;;;;20683459;28;20038;-81
2022/07/19 08:17:03;;;;;;;1.33;0.70;;;28.40;96.30;;;;;;20685748;28;20053;-81
2022/07/19 08:27:04;;;;;;;2.00;0.70;;;29.10;94.70;;;;;;20679691;28;20027;-81
2022/07/19 08:37:05;;;;;;;1.90;0.80;;;29.60;93.70;;;;;;20664075;28;20369;-81
2022/07/19 08:47:06;;;;;;;2.05;0.90;;;29.90;93.10;;;;;;20663171;28;20042;-80
2022/07/19 09:07:28;;;;;;;3.63;1.02;;;30.70;92.30;;;;;;20673643;28;20627;-84
2022/07/19 09:17:29;;;;;;;2.63;0.98;;;31.10;91.90;;;;;;20662048;28;20050;-81
2022/07/19 09:27:30;;;;;;;1.60;0.93;;;31.20;92.20;;;;;;20667268;28;20105;-81
2022/07/19 09:37:34;;;;;;;1.90;1.13;;;31.60;92.90;;;;;;20634076;28;20537;-82
2022/07/19 09:47:40;;;;;;;2.50;0.70;;;32.10;91.20;;;;;;20579903;28;20027;-82
2022/07/19 09:57:49;;;;;;;1.42;0.82;;;32.40;90.70;;;;;;20571754;28;20101;-82
2022/07/19 10:07:51;;;;;;;1.80;0.95;;;33.00;90.30;;;;;;20590879;28;20027;-82
2022/07/19 10:18:12;;;;;;;1.65;0.93;;;33.60;88.60;;;;;;20580305;28;20046;-82
2022/07/19 10:28:37;;;;;;;1.70;0.65;;;33.60;85.00;;;;;;20582103;28;22396;-82
2022/07/19 10:38:38;;;;;;;1.63;1.00;;;34.30;80.60;;;;;;20619178;28;21968;-82
2022/07/19 10:48:49;;;;;;;6.70;1.25;;;34.60;81.60;;;;;;20666995;28;20030;-82
2022/07/19 10:59:28;;;;;;;1.58;0.68;;;35.10;78.60;;;;;;20681568;28;20044;-80
2022/07/19 11:09:43;;;;;;;2.15;0.80;;;35.50;77.30;;;;;;20650159;28;20530;-81
2022/07/19 11:20:08;;;;;;;1.25;0.65;;;36.00;76.50;;;;;;20688297;28;20042;-81
2022/07/19 11:30:11;;;;;;;1.03;0.60;;;35.80;74.30;;;;;;20684533;28;20046;-82
2022/07/19 11:40:13;;;;;;;12.10;0.85;;;36.00;71.80;;;;;;20670171;28;20533;-81
2022/07/19 11:50:16;;;;;;;2.92;0.68;;;36.30;74.50;;;;;;20671327;28;20034;-81
2022/07/19 12:00:18;;;;;;;1.77;0.93;;;36.60;72.30;;;;;;20682914;28;20058;-81
2022/07/19 12:10:45;;;;;;;3.85;1.40;;;36.90;71.20;;;;;;20662978;28;21474;-81
2022/07/19 12:21:19;;;;;;;2.47;1.30;;;37.00;72.20;;;;;;20677765;28;20045;-81
2022/07/19 12:31:21;;;;;;;1.48;1.20;;;37.00;72.60;;;;;;20663627;28;20105;-81
2022/07/19 12:41:22;;;;;;;1.08;0.73;;;37.40;73.00;;;;;;20671300;28;20406;-82
2022/07/19 12:51:23;;;;;;;1.55;0.60;;;37.80;68.80;;;;;;20663538;28;20105;-81
2022/07/19 13:01:24;;;;;;;1.20;0.40;;;37.70;68.90;;;;;;20674300;28;21143;-81
2022/07/19 13:11:26;;;;;;;1.52;0.80;;;38.00;66.50;;;;;;20660668;28;20037;-81
2022/07/19 13:21:27;;;;;;;1.55;0.88;;;38.00;68.10;;;;;;20657227;28;20446;-81
2022/07/19 13:31:30;;;;;;;1.40;0.65;;;38.50;65.10;;;;;;20663806;28;20038;-84
2022/07/19 13:41:31;;;;;;;1.60;0.70;;;38.40;66.30;;;;;;20647830;28;20069;-81
2022/07/19 13:51:32;;;;;;;1.40;0.70;;;38.30;64.20;;;;;;20658851;28;20525;-81
2022/07/19 14:01:33;;;;;;;2.35;0.80;;;38.00;65.80;;;;;;20652645;28;20090;-82
2022/07/19 14:11:35;;;;;;;1.48;0.85;;;37.60;64.80;;;;;;20661225;28;20093;-82
2022/07/19 14:21:36;;;;;;;3.65;1.10;;;37.80;63.20;;;;;;20675122;28;20382;-82
2022/07/19 14:31:37;;;;;;;2.50;0.93;;;37.70;64.40;;;;;;20653964;28;22264;-82
2022/07/19 14:41:38;;;;;;;1.80;0.90;;;37.50;63.70;;;;;;20657351;28;20442;-82
2022/07/19 14:51:40;;;;;;;1.85;0.77;;;37.40;63.10;;;;;;20681191;28;20042;-82
2022/07/19 15:01:41;;;;;;;2.85;1.73;;;37.40;62.70;;;;;;20686997;28;20058;-82
2022/07/19 15:11:42;;;;;;;1.33;0.73;;;37.20;62.20;;;;;;20667483;28;20041;-82
2022/07/19 15:21:43;;;;;;;2.70;0.80;;;37.20;65.30;;;;;;20671784;28;20038;-82
2022/07/19 15:31:45;;;;;;;3.40;1.35;;;37.00;65.60;;;;;;20660509;28;20477;-82
2022/07/19 15:41:46;;;;;;;1.83;0.80;;;36.90;65.00;;;;;;20692141;28;20042;-82
2022/07/19 15:51:47;;;;;;;1.45;0.65;;;36.70;62.10;;;;;;20686197;28;20035;-82
2022/07/19 16:01:49;;;;;;;2.00;1.10;;;36.70;63.50;;;;;;20654675;28;20122;-82
2022/07/19 16:11:51;;;;;;;2.00;1.02;;;36.60;63.40;;;;;;20657507;28;20398;-87
2022/07/19 16:21:52;;;;;;;2.00;1.08;;;36.40;63.50;;;;;;20670413;28;20133;-82
2022/07/19 16:31:53;;;;;;;2.92;0.90;;;36.20;64.10;;;;;;20680896;28;20030;-82
2022/07/19 16:41:54;;;;;;;3.20;0.80;;;36.20;62.90;;;;;;20681361;28;20045;-82
2022/07/19 16:51:55;;;;;;;1.33;0.73;;;36.10;61.80;;;;;;20670382;28;20405;-83
2022/07/19 17:01:56;;;;;;;2.00;0.60;;;35.90;60.50;;;;;;20638865;28;20508;-84
2022/07/19 17:11:57;;;;;;;2.50;0.60;;;35.70;58.80;;;;;;20680285;28;20042;-83
2022/07/19 17:21:58;;;;;;;2.38;1.10;;;35.60;56.30;;;;;;20672876;28;20049;-83
2022/07/19 17:31:59;;;;;;;1.83;0.70;;;35.70;56.10;;;;;;20659415;28;20042;-82
2022/07/19 17:42:00;;;;;;;1.02;0.52;;;35.60;56.70;;;;;;20650636;28;20041;-83
2022/07/19 17:52:01;;;;;;;1.48;0.70;;;35.30;57.70;;;;;;20677085;28;20044;-82
2022/07/19 18:02:03;;;;;;;1.10;0.70;;;35.20;58.60;;;;;;20660898;28;20042;-82
2022/07/19 18:12:05;;;;;;;1.50;0.95;;;34.90;58.40;;;;;;20659224;28;21044;-84
2022/07/19 18:22:05;;;;;;;1.27;0.60;;;34.80;58.80;;;;;;20662406;28;20026;-83
2022/07/19 18:32:06;;;;;;;2.33;0.90;;;34.60;59.20;;;;;;20663304;28;20042;-83
2022/07/19 18:42:08;;;;;;;2.08;1.02;;;34.30;60.10;;;;;;20597634;28;20035;-82
2022/07/19 18:52:09;;;;;;;0.82;0.52;;;34.00;63.50;;;;;;20581980;28;20113;-83
2022/07/19 19:02:10;;;;;;;1.95;0.93;;;33.70;64.80;;;;;;20598856;28;20094;-82
2022/07/19 19:12:11;;;;;;;1.05;0.63;;;32.90;75.00;;;;;;20592251;28;20084;-83
2022/07/19 19:22:12;;;;;;;2.40;1.25;;;32.20;80.10;;;;;;20580540;28;20439;-82
2022/07/19 19:32:14;;;;;;;2.75;1.50;;;31.60;83.20;;;;;;20595130;28;20405;-83
2022/07/19 19:42:15;;;;;;;1.88;0.95;;;30.90;84.60;;;;;;20652103;28;20534;-82
2022/07/19 19:52:16;;;;;;;1.55;1.10;;;30.40;85.30;;;;;;20684967;28;20031;-84
2022/07/19 20:02:17;;;;;;;8.77;1.80;;;29.90;84.70;;;;;;20682364;28;20061;-80
2022/07/19 20:12:18;;;;;;;2.22;1.10;;;29.50;83.50;;;;;;20675436;28;20045;-81
2022/07/19 20:22:21;;;;;;;1.33;0.80;;;29.10;86.20;;;;;;20663184;28;20524;-80
2022/07/19 20:32:23;;;;;;;2.83;1.63;;;28.80;85.80;;;;;;20666483;28;20046;-81
2022/07/19 20:42:24;;;;;;;1.20;0.90;;;28.60;87.30;;;;;;20661522;28;20045;-81
2022/07/19 20:52:25;;;;;;;1.48;0.73;;;28.40;84.60;;;;;;20649111;28;20038;-80
2022/07/19 21:02:26;;;;;;;1.63;0.60;;;28.40;76.70;;;;;;20646551;28;20038;-81
2022/07/19 21:12:27;;;;;;;3.08;1.10;;;28.70;73.70;;;;;;20656173;28;20054;-81
2022/07/19 21:22:28;;;;;;;1.42;0.70;;;29.00;72.60;;;;;;20634905;28;20098;-81
2022/07/19 21:32:29;;;;;;;1.85;1.10;;;29.20;72.40;;;;;;20642947;28;20042;-80
2022/07/19 21:42:30;;;;;;;1.85;1.00;;;29.40;70.40;;;;;;20639063;28;20057;-80
2022/07/19 21:52:31;;;;;;;2.33;0.80;;;29.50;67.80;;;;;;20653359;28;20045;-80
2022/07/19 22:02:32;;;;;;;2.60;1.17;;;29.50;68.70;;;;;;20633037;28;20049;-80
2022/07/19 22:12:33;;;;;;;1.92;0.80;;;29.40;68.50;;;;;;20644389;28;20057;-80
2022/07/19 22:22:35;;;;;;;2.42;1.10;;;29.50;66.90;;;;;;20649397;28;20593;-80
2022/07/19 22:32:36;;;;;;;2.47;1.20;;;29.70;66.80;;;;;;20658370;28;20391;-80
2022/07/19 22:42:37;;;;;;;3.35;1.33;;;29.80;65.60;;;;;;20564368;28;20110;-81
2022/07/19 22:52:39;;;;;;;1.58;0.70;;;29.60;65.50;;;;;;20568772;28;20031;-80
2022/07/19 23:02:40;;;;;;;6.65;2.22;;;29.60;65.90;;;;;;20581914;28;20144;-80
2022/07/19 23:12:41;;;;;;;1.95;1.10;;;29.60;65.70;;;;;;20589079;28;20030;-80
2022/07/19 23:22:42;;;;;;;2.38;1.33;;;29.60;65.60;;;;;;20590663;28;20042;-80
2022/07/19 23:32:43;;;;;;;5.93;1.67;;;29.20;65.70;;;;;;20590709;28;20039;-80
2022/07/19 23:42:44;;;;;;;2.45;1.00;;;29.10;66.00;;;;;;20643902;28;20069;-80
2022/07/19 23:52:45;;;;;;;1.70;1.00;;;29.00;66.30;;;;;;20653244;28;20030;-80
